Time;durP1;ratioP1;P1;durP2;ratioP2;P2;SDS_P1;SDS_P2;PMS_P1;PMS_P2;Temp;Humidity;BMP_temperature;BMP_pressure;BME280_temperature;BME280_humidity;BME280_pressure;Samples;Min_cycle;Max_cycle;Signal;HPM_P1;HPM_P2
2023/10/04 00:01:47;;;;;;;9.98;3.55;;;15.70;99.90;;;;;;5029575;28;20045;-80
2023/10/04 00:04:14;;;;;;;8.07;3.30;;;15.70;99.90;;;;;;5046151;28;20048;-80
2023/10/04 00:06:41;;;;;;;11.48;3.70;;;15.70;99.90;;;;;;5043519;28;20135;-80
2023/10/04 00:09:09;;;;;;;9.75;2.90;;;15.70;99.90;;;;;;5045609;28;20041;-80
2023/10/04 00:11:37;;;;;;;7.97;3.45;;;15.70;99.90;;;;;;5047199;28;20049;-80
2023/10/04 00:14:05;;;;;;;6.95;2.97;;;15.70;99.90;;;;;;5062456;28;20055;-80
2023/10/04 00:16:32;;;;;;;8.75;3.20;;;15.70;99.90;;;;;;5020356;28;20052;-80
2023/10/04 00:19:01;;;;;;;8.25;3.53;;;15.80;99.90;;;;;;5031788;28;20049;-80
2023/10/04 00:21:29;;;;;;;10.25;3.60;;;15.80;99.90;;;;;;5028514;28;22414;-80
2023/10/04 00:24:00;;;;;;;9.20;3.00;;;15.80;99.90;;;;;;5045281;28;20508;-80
2023/10/04 00:26:27;;;;;;;11.90;3.45;;;15.80;99.90;;;;;;5044488;28;20045;-80
2023/10/04 00:28:54;;;;;;;10.05;3.10;;;15.80;99.90;;;;;;5045431;28;20064;-79
2023/10/04 00:31:22;;;;;;;7.95;2.95;;;15.80;99.90;;;;;;5047582;28;20053;-80
2023/10/04 00:33:49;;;;;;;7.57;3.10;;;15.80;99.90;;;;;;5017071;28;20962;-80
2023/10/04 00:36:20;;;;;;;8.43;3.40;;;15.80;99.90;;;;;;5028955;28;20056;-80
2023/10/04 00:38:48;;;;;;;7.00;2.97;;;15.80;99.90;;;;;;5024121;28;20051;-80
2023/10/04 00:41:15;;;;;;;8.15;3.33;;;15.80;99.90;;;;;;5020690;28;20045;-80
2023/10/04 00:43:51;;;;;;;7.25;3.42;;;15.70;99.90;;;;;;5048602;28;20132;-80
2023/10/04 00:46:20;;;;;;;7.47;3.22;;;15.70;99.90;;;;;;5047196;28;20487;-80
2023/10/04 00:48:49;;;;;;;9.50;3.05;;;15.70;99.90;;;;;;5027300;28;20136;-80
2023/10/04 00:51:22;;;;;;;9.95;3.25;;;15.70;99.90;;;;;;5044867;28;20407;-80
2023/10/04 00:53:53;;;;;;;7.03;3.38;;;15.70;99.90;;;;;;5041458;28;20052;-80
2023/10/04 00:56:21;;;;;;;8.25;3.22;;;15.70;99.90;;;;;;5030295;28;20170;-80
2023/10/04 00:58:50;;;;;;;6.97;3.28;;;15.60;99.90;;;;;;5044797;28;20041;-80
2023/10/04 01:01:17;;;;;;;5.95;3.30;;;15.60;99.90;;;;;;5042922;28;20053;-80
2023/10/04 01:03:45;;;;;;;6.90;3.00;;;15.60;99.90;;;;;;5044429;28;20040;-80
2023/10/04 01:06:14;;;;;;;8.55;3.72;;;15.60;99.90;;;;;;5045608;28;20051;-80
2023/10/04 01:08:42;;;;;;;7.82;3.30;;;15.60;99.90;;;;;;5043688;28;20052;-80
2023/10/04 01:11:09;;;;;;;8.27;3.00;;;15.60;99.90;;;;;;5018834;28;20076;-80
2023/10/04 01:13:38;;;;;;;6.97;3.25;;;15.60;99.90;;;;;;5064424;28;20048;-80
2023/10/04 01:16:09;;;;;;;8.10;3.38;;;15.60;99.90;;;;;;5045638;28;20037;-80
2023/10/04 01:18:38;;;;;;;9.68;3.53;;;15.50;99.90;;;;;;5028318;28;20045;-80
2023/10/04 01:21:05;;;;;;;8.25;3.15;;;15.50;99.90;;;;;;5033952;28;20037;-80
2023/10/04 01:23:33;;;;;;;6.70;3.15;;;15.50;99.90;;;;;;5021457;28;20075;-80
2023/10/04 01:26:00;;;;;;;11.13;3.72;;;15.50;99.90;;;;;;5023879;28;20150;-80
2023/10/04 01:28:30;;;;;;;9.32;4.28;;;15.50;99.90;;;;;;5055425;28;20045;-80
2023/10/04 01:31:01;;;;;;;10.57;4.07;;;15.50;99.90;;;;;;5042491;28;22557;-80
2023/10/04 01:33:28;;;;;;;10.88;4.63;;;15.40;99.90;;;;;;5032381;28;20044;-80
2023/10/04 01:35:56;;;;;;;15.15;4.63;;;15.40;99.90;;;;;;5023831;28;20041;-80
2023/10/04 01:38:25;;;;;;;14.50;5.65;;;15.40;99.90;;;;;;5029110;28;20160;-79
2023/10/04 01:40:56;;;;;;;9.75;4.35;;;15.30;99.90;;;;;;5032823;28;20053;-80
2023/10/04 01:43:25;;;;;;;12.63;4.95;;;15.40;99.90;;;;;;5045563;28;20053;-80
2023/10/04 01:45:57;;;;;;;12.02;4.60;;;15.30;99.90;;;;;;5034300;28;20059;-80
2023/10/04 01:48:27;;;;;;;11.10;4.47;;;15.30;99.90;;;;;;5021672;28;20083;-80
2023/10/04 01:50:54;;;;;;;8.07;3.80;;;15.40;99.90;;;;;;5020492;28;20072;-80
2023/10/04 01:53:25;;;;;;;10.65;4.55;;;15.30;99.90;;;;;;5027429;28;20080;-81
2023/10/04 01:55:53;;;;;;;10.70;4.30;;;15.30;99.90;;;;;;5060320;28;20074;-80
2023/10/04 01:58:24;;;;;;;10.57;4.07;;;15.30;99.90;;;;;;5023493;28;20041;-80
2023/10/04 02:01:01;;;;;;;9.85;4.13;;;15.30;99.90;;;;;;5026086;28;20061;-80
2023/10/04 02:03:29;;;;;;;11.43;4.85;;;15.20;99.90;;;;;;5029729;28;20158;-80
2023/10/04 02:05:57;;;;;;;13.63;4.97;;;15.20;99.90;;;;;;5033647;28;20041;-80
2023/10/04 02:08:26;;;;;;;9.00;5.10;;;15.20;99.90;;;;;;5028724;28;20053;-80
2023/10/04 02:10:54;;;;;;;14.10;4.68;;;15.10;99.90;;;;;;5027776;28;20106;-80
2023/10/04 02:13:22;;;;;;;10.45;4.68;;;15.10;99.90;;;;;;5046774;28;20504;-80
2023/10/04 02:15:52;;;;;;;11.27;4.68;;;15.10;99.90;;;;;;5028014;28;20068;-80
2023/10/04 02:18:21;;;;;;;15.88;5.60;;;15.10;99.90;;;;;;5021050;28;20048;-80
2023/10/04 02:20:49;;;;;;;10.32;4.22;;;15.10;99.90;;;;;;5051744;28;20139;-80
2023/10/04 02:23:18;;;;;;;11.55;4.32;;;15.00;99.90;;;;;;5022080;28;20037;-80
2023/10/04 02:25:47;;;;;;;12.50;5.18;;;15.00;99.90;;;;;;5041228;28;20132;-80
2023/10/04 02:28:23;;;;;;;13.20;4.50;;;14.90;99.90;;;;;;5026777;28;20044;-80
2023/10/04 02:30:54;;;;;;;10.52;5.13;;;15.00;99.90;;;;;;5048978;28;20052;-80
2023/10/04 02:33:31;;;;;;;10.77;4.40;;;14.90;99.90;;;;;;5040933;28;20045;-81
2023/10/04 02:36:06;;;;;;;10.95;5.10;;;15.00;99.90;;;;;;5035503;28;20068;-80
2023/10/04 02:38:34;;;;;;;11.85;4.70;;;15.00;99.90;;;;;;5028430;28;20139;-80
2023/10/04 02:41:05;;;;;;;9.73;4.32;;;15.00;99.90;;;;;;5026874;28;20649;-80
2023/10/04 02:43:32;;;;;;;10.10;4.15;;;15.00;99.90;;;;;;5060699;28;20122;-79
2023/10/04 02:45:59;;;;;;;8.80;4.20;;;15.00;99.90;;;;;;5022044;28;22434;-79
2023/10/04 02:48:30;;;;;;;8.40;4.35;;;15.10;99.90;;;;;;5025987;28;20044;-80
2023/10/04 02:50:58;;;;;;;10.48;4.78;;;15.10;99.90;;;;;;5021721;28;20045;-78
2023/10/04 02:53:26;;;;;;;12.20;4.38;;;15.20;99.90;;;;;;5047644;28;20057;-79
2023/10/04 02:55:57;;;;;;;6.57;3.33;;;15.30;99.90;;;;;;5025367;28;20500;-79
2023/10/04 02:58:34;;;;;;;9.15;3.25;;;15.20;99.90;;;;;;5052432;28;20052;-79
2023/10/04 03:01:03;;;;;;;7.43;3.08;;;15.60;99.90;;;;;;5041760;28;20143;-80
2023/10/04 03:03:31;;;;;;;6.03;2.10;;;15.70;99.90;;;;;;5019385;28;20051;-78
2023/10/04 03:06:04;;;;;;;6.47;2.42;;;16.00;99.90;;;;;;5025511;28;20048;-79
2023/10/04 03:08:32;;;;;;;7.43;2.10;;;16.10;99.90;;;;;;5019768;28;20045;-79
2023/10/04 03:11:03;;;;;;;5.63;2.25;;;16.20;99.90;;;;;;5029233;28;20091;-81
2023/10/04 03:13:34;;;;;;;6.35;1.52;;;16.30;99.90;;;;;;5035226;28;22477;-83
2023/10/04 03:16:03;;;;;;;5.68;1.90;;;16.30;99.90;;;;;;5031668;28;20143;-77
2023/10/04 03:18:35;;;;;;;6.20;1.77;;;16.50;99.90;;;;;;5022134;28;20045;-79
2023/10/04 03:21:16;;;;;;;4.38;1.23;;;16.60;99.90;;;;;;5044309;28;20053;-79
2023/10/04 03:23:44;;;;;;;6.32;1.70;;;16.50;99.90;;;;;;5025261;28;20049;-79
2023/10/04 03:26:18;;;;;;;4.30;1.90;;;16.70;99.90;;;;;;5047185;28;20052;-78
2023/10/04 03:28:50;;;;;;;5.35;1.58;;;16.60;99.90;;;;;;5034971;28;20110;-79
2023/10/04 03:31:20;;;;;;;4.50;1.48;;;16.70;99.90;;;;;;5064708;28;20056;-80
2023/10/04 03:33:53;;;;;;;4.55;1.30;;;16.70;99.90;;;;;;5046368;28;20059;-79
2023/10/04 03:36:25;;;;;;;5.20;1.15;;;16.70;99.90;;;;;;5045498;28;20135;-80
2023/10/04 03:39:04;;;;;;;4.20;1.10;;;16.70;99.90;;;;;;5040919;28;22499;-79
2023/10/04 03:41:35;;;;;;;3.17;1.02;;;16.70;99.90;;;;;;5046300;28;20462;-79
2023/10/04 03:44:07;;;;;;;5.28;1.15;;;16.60;99.90;;;;;;5029495;28;20142;-78
2023/10/04 03:46:35;;;;;;;4.95;1.65;;;16.60;99.90;;;;;;5064681;28;20064;-78
2023/10/04 03:49:02;;;;;;;3.67;1.30;;;16.60;99.90;;;;;;5044949;28;20037;-78
2023/10/04 03:51:30;;;;;;;4.90;1.30;;;16.70;99.90;;;;;;5047632;28;21056;-77
2023/10/04 03:54:06;;;;;;;3.72;1.33;;;16.70;99.90;;;;;;5036013;28;20041;-78
2023/10/04 03:56:36;;;;;;;3.75;1.17;;;16.80;99.90;;;;;;5044435;28;20055;-78
2023/10/04 03:59:03;;;;;;;2.45;0.70;;;16.90;99.90;;;;;;5029557;28;20539;-79
2023/10/04 04:01:32;;;;;;;3.80;1.20;;;16.90;99.90;;;;;;5026938;28;20138;-79
2023/10/04 04:04:03;;;;;;;2.75;0.75;;;16.90;99.90;;;;;;5046547;28;20060;-79
2023/10/04 04:06:31;;;;;;;2.70;0.70;;;16.80;99.90;;;;;;5026573;28;20075;-79
2023/10/04 04:09:03;;;;;;;4.43;1.00;;;16.70;99.90;;;;;;5052644;28;20045;-80
2023/10/04 04:11:31;;;;;;;4.07;1.00;;;16.80;99.90;;;;;;5028591;28;20053;-80
2023/10/04 04:13:58;;;;;;;4.18;0.80;;;16.90;99.90;;;;;;5042990;28;20504;-80
2023/10/04 04:16:26;;;;;;;3.15;1.05;;;16.90;99.90;;;;;;5034906;28;20049;-79
2023/10/04 04:18:55;;;;;;;3.17;1.00;;;16.90;99.90;;;;;;5029900;28;20487;-78
2023/10/04 04:21:28;;;;;;;3.17;0.80;;;16.90;99.90;;;;;;5044815;28;22119;-78
2023/10/04 04:23:56;;;;;;;2.30;0.63;;;16.90;99.90;;;;;;5044241;28;20048;-78
2023/10/04 04:26:27;;;;;;;2.50;0.70;;;16.90;99.90;;;;;;5045415;28;20131;-80
2023/10/04 04:28:55;;;;;;;3.13;1.08;;;16.90;99.90;;;;;;5050177;28;20504;-80
2023/10/04 04:31:22;;;;;;;2.53;1.08;;;16.90;99.90;;;;;;5025968;28;20037;-81
2023/10/04 04:33:50;;;;;;;4.15;0.70;;;16.80;99.90;;;;;;5030381;28;20157;-79
2023/10/04 04:36:27;;;;;;;2.42;0.88;;;16.80;99.90;;;;;;5028418;28;20046;-81
2023/10/04 04:39:05;;;;;;;2.92;0.68;;;16.80;99.90;;;;;;5043333;28;20076;-79
2023/10/04 04:41:36;;;;;;;4.60;0.60;;;16.80;99.90;;;;;;5041884;28;20052;-82
2023/10/04 04:44:07;;;;;;;3.30;0.60;;;16.90;99.90;;;;;;5040363;28;20045;-80
2023/10/04 04:46:38;;;;;;;4.20;0.73;;;16.90;99.90;;;;;;5030905;28;20065;-82
2023/10/04 04:49:06;;;;;;;32.92;2.05;;;16.90;99.90;;;;;;5041494;28;20059;-82
2023/10/04 04:51:34;;;;;;;2.03;0.63;;;16.80;99.90;;;;;;5028048;28;21062;-81
2023/10/04 04:54:02;;;;;;;2.05;0.43;;;16.70;99.90;;;;;;5041657;28;20045;-82
2023/10/04 04:56:31;;;;;;;3.10;0.60;;;16.80;99.90;;;;;;5038498;28;20053;-80
2023/10/04 04:59:07;;;;;;;1.45;0.28;;;16.90;99.90;;;;;;5032735;28;22590;-80
2023/10/04 05:01:39;;;;;;;3.22;0.30;;;17.00;99.90;;;;;;5026557;28;20410;-83
2023/10/04 05:04:09;;;;;;;2.20;0.40;;;17.00;99.90;;;;;;5018968;28;20045;-80
2023/10/04 05:06:39;;;;;;;3.22;0.30;;;16.90;99.90;;;;;;5025530;28;20057;-83
2023/10/04 05:09:10;;;;;;;1.55;0.55;;;17.00;99.90;;;;;;5032268;28;20164;-82
2023/10/04 05:11:39;;;;;;;2.20;0.30;;;17.10;99.90;;;;;;5035993;28;20071;-82
2023/10/04 05:14:06;;;;;;;2.05;0.25;;;17.20;99.90;;;;;;5027388;28;20075;-81
2023/10/04 05:16:34;;;;;;;2.17;0.20;;;17.20;99.80;;;;;;5044348;28;22663;-80
2023/10/04 05:19:03;;;;;;;1.30;0.20;;;17.20;99.40;;;;;;5029793;28;20063;-83
2023/10/04 05:21:31;;;;;;;2.50;0.30;;;17.20;99.00;;;;;;5046505;28;20044;-81
2023/10/04 05:23:58;;;;;;;1.63;0.30;;;17.20;98.90;;;;;;5028640;28;20423;-81
2023/10/04 05:26:27;;;;;;;2.28;0.30;;;17.30;98.10;;;;;;5039985;28;20587;-83
2023/10/04 05:28:55;;;;;;;1.17;0.40;;;17.30;98.10;;;;;;5038257;28;20060;-82
2023/10/04 05:31:22;;;;;;;0.70;0.10;;;17.30;97.40;;;;;;5042726;28;20174;-82
2023/10/04 05:33:50;;;;;;;2.47;0.25;;;17.30;97.40;;;;;;5029742;28;20060;-80
2023/10/04 05:36:18;;;;;;;3.42;0.32;;;17.30;97.00;;;;;;5015126;28;20053;-80
2023/10/04 05:38:45;;;;;;;2.55;0.63;;;17.30;96.80;;;;;;5040812;28;20155;-79
2023/10/04 05:41:12;;;;;;;2.85;0.20;;;17.30;96.50;;;;;;5044119;28;20095;-79
2023/10/04 05:43:40;;;;;;;2.47;0.20;;;17.30;96.20;;;;;;5041825;28;20041;-80
2023/10/04 05:46:07;;;;;;;1.38;0.20;;;17.40;95.90;;;;;;5047311;28;20468;-81
2023/10/04 05:48:35;;;;;;;2.13;0.22;;;17.40;95.40;;;;;;5022382;28;20041;-80
2023/10/04 05:51:06;;;;;;;3.47;0.73;;;17.50;94.90;;;;;;5028270;28;20215;-81
2023/10/04 05:53:34;;;;;;;4.07;0.50;;;17.50;94.70;;;;;;5024655;28;20079;-81
2023/10/04 05:56:02;;;;;;;2.30;0.30;;;17.50;94.60;;;;;;5023253;28;20080;-82
2023/10/04 05:58:31;;;;;;;2.63;0.40;;;17.50;94.60;;;;;;5039873;28;22385;-79
2023/10/04 06:00:59;;;;;;;2.10;0.30;;;17.50;94.60;;;;;;5052407;28;20103;-87
2023/10/04 06:03:27;;;;;;;1.15;0.13;;;17.50;94.40;;;;;;5033702;28;20048;-81
2023/10/04 06:05:59;;;;;;;1.50;0.20;;;17.50;94.10;;;;;;5024053;28;20060;-80
2023/10/04 06:08:28;;;;;;;2.95;0.20;;;17.50;94.10;;;;;;5042084;28;20076;-87
2023/10/04 06:10:55;;;;;;;1.92;0.55;;;17.50;94.30;;;;;;5028234;28;20419;-83
2023/10/04 06:13:25;;;;;;;1.40;0.30;;;17.50;93.90;;;;;;5038857;28;20064;-82
2023/10/04 06:15:55;;;;;;;14.10;1.35;;;17.50;93.50;;;;;;5037742;28;20148;-82
2023/10/04 06:18:28;;;;;;;2.33;0.50;;;17.50;93.10;;;;;;5023935;28;20052;-87
2023/10/04 06:20:58;;;;;;;1.42;0.20;;;17.50;93.00;;;;;;5023485;28;20048;-79
2023/10/04 06:23:29;;;;;;;5.30;0.43;;;17.50;93.10;;;;;;5052835;28;22015;-81
2023/10/04 06:25:56;;;;;;;4.57;0.50;;;17.50;92.90;;;;;;5040557;28;20045;-81
2023/10/04 06:28:23;;;;;;;5.50;0.30;;;17.50;92.80;;;;;;5031937;28;20051;-79
2023/10/04 06:30:52;;;;;;;2.45;0.50;;;17.50;92.60;;;;;;5028077;28;20095;-81
2023/10/04 06:33:20;;;;;;;2.10;0.25;;;17.50;92.70;;;;;;5042273;28;20067;-80
2023/10/04 06:35:47;;;;;;;1.67;0.20;;;17.50;92.60;;;;;;5029115;28;20045;-80
2023/10/04 06:38:15;;;;;;;3.53;0.45;;;17.50;93.10;;;;;;5026636;28;20049;-81
2023/10/04 06:40:42;;;;;;;1.40;0.20;;;17.50;92.80;;;;;;5018907;28;20049;-82
2023/10/04 06:43:11;;;;;;;1.60;0.25;;;17.50;92.50;;;;;;5037550;28;20045;-78
2023/10/04 06:45:41;;;;;;;2.78;0.32;;;17.50;92.20;;;;;;5041883;28;20065;-80
2023/10/04 06:48:08;;;;;;;1.58;0.40;;;17.50;91.90;;;;;;5035116;28;20140;-80
2023/10/04 06:50:40;;;;;;;2.15;0.28;;;17.50;91.90;;;;;;5016730;28;20057;-82
2023/10/04 06:53:12;;;;;;;2.53;0.40;;;17.60;91.90;;;;;;5024461;28;20048;-83
2023/10/04 06:55:41;;;;;;;2.83;0.20;;;17.60;90.80;;;;;;5039957;28;20080;-82
2023/10/04 06:58:11;;;;;;;2.63;0.20;;;17.60;90.40;;;;;;5024025;28;20466;-79
2023/10/04 07:00:40;;;;;;;1.45;0.20;;;17.70;90.00;;;;;;5056395;28;20056;-81
2023/10/04 07:03:09;;;;;;;1.65;0.30;;;17.70;89.90;;;;;;5045296;28;20504;-82
2023/10/04 07:05:39;;;;;;;4.85;0.68;;;17.70;88.70;;;;;;5032638;28;20427;-81
2023/10/04 07:08:09;;;;;;;4.07;0.20;;;17.70;88.10;;;;;;5019798;28;20302;-80
2023/10/04 07:10:36;;;;;;;3.75;0.57;;;17.70;86.80;;;;;;5025990;28;20068;-79
2023/10/04 07:13:06;;;;;;;2.55;0.25;;;17.70;86.60;;;;;;5039616;28;20048;-80
2023/10/04 07:15:41;;;;;;;2.28;0.20;;;17.70;86.70;;;;;;5012064;28;20113;-79
2023/10/04 07:18:11;;;;;;;6.75;0.40;;;17.80;85.90;;;;;;5038739;28;20534;-80
2023/10/04 07:20:40;;;;;;;7.47;0.80;;;17.80;85.30;;;;;;5004128;28;20084;-83
2023/10/04 07:23:10;;;;;;;3.65;0.40;;;17.70;84.90;;;;;;5039307;28;20037;-81
2023/10/04 07:25:41;;;;;;;1.73;0.20;;;17.70;85.10;;;;;;5041992;28;20107;-79
2023/10/04 07:28:11;;;;;;;2.08;0.20;;;17.70;85.50;;;;;;5038158;28;20057;-80
2023/10/04 07:30:40;;;;;;;1.48;0.20;;;17.70;85.60;;;;;;5022905;28;20464;-81
2023/10/04 07:33:08;;;;;;;3.90;0.30;;;17.70;85.30;;;;;;5018125;28;20056;-79
2023/10/04 07:35:37;;;;;;;1.38;0.20;;;17.70;85.50;;;;;;5035309;28;20041;-83
2023/10/04 07:38:05;;;;;;;1.63;0.20;;;17.60;85.70;;;;;;5036727;28;20053;-80
2023/10/04 07:40:33;;;;;;;1.13;0.10;;;17.70;86.10;;;;;;5025816;28;20053;-79
2023/10/04 07:43:01;;;;;;;1.00;0.20;;;17.70;86.20;;;;;;5041607;28;20045;-79
2023/10/04 07:45:30;;;;;;;1.98;0.30;;;17.80;86.50;;;;;;5042913;28;22592;-80
2023/10/04 07:48:00;;;;;;;2.92;0.20;;;17.80;86.60;;;;;;5042319;28;20048;-82
2023/10/04 07:50:28;;;;;;;3.90;0.30;;;17.70;86.60;;;;;;5039756;28;20570;-82
2023/10/04 07:53:04;;;;;;;2.88;0.57;;;17.70;86.70;;;;;;5038842;28;20183;-82
2023/10/04 07:55:33;;;;;;;3.72;0.20;;;17.70;87.00;;;;;;5037359;28;20087;-81
2023/10/04 07:58:04;;;;;;;6.13;0.50;;;17.60;87.30;;;;;;5035585;28;21224;-82
2023/10/04 08:00:37;;;;;;;0.73;0.10;;;17.70;87.60;;;;;;5048146;28;20063;-80
2023/10/04 08:03:06;;;;;;;3.47;0.25;;;17.80;88.00;;;;;;5045194;28;20077;-78
2023/10/04 08:05:35;;;;;;;0.77;0.10;;;17.80;88.00;;;;;;5042206;28;20053;-81
2023/10/04 08:08:05;;;;;;;1.67;0.20;;;17.90;87.90;;;;;;5041616;28;20049;-79
2023/10/04 08:10:36;;;;;;;1.42;0.20;;;18.10;88.30;;;;;;5026520;28;20059;-83
2023/10/04 08:13:04;;;;;;;2.15;0.15;;;18.10;87.90;;;;;;5026585;28;20064;-81
2023/10/04 08:15:35;;;;;;;2.25;0.22;;;18.10;88.00;;;;;;5041006;28;20060;-78
2023/10/04 08:18:04;;;;;;;1.08;0.30;;;18.10;87.90;;;;;;5046084;28;20062;-79
2023/10/04 08:20:32;;;;;;;2.13;0.63;;;18.20;88.00;;;;;;5029014;28;20496;-80
2023/10/04 08:23:04;;;;;;;3.35;0.68;;;18.20;88.00;;;;;;5049421;28;20055;-82
2023/10/04 08:25:32;;;;;;;3.50;0.28;;;18.20;87.90;;;;;;5020115;28;20131;-82
2023/10/04 08:28:03;;;;;;;1.38;0.40;;;18.30;87.50;;;;;;5041575;28;20048;-80
2023/10/04 08:30:31;;;;;;;1.50;0.20;;;18.30;87.30;;;;;;5036066;28;20190;-83
2023/10/04 08:32:59;;;;;;;2.05;0.25;;;18.50;87.50;;;;;;5055697;28;20059;-80
2023/10/04 08:35:28;;;;;;;1.17;0.20;;;18.50;87.10;;;;;;5042834;28;20085;-80
2023/10/04 08:37:59;;;;;;;2.75;0.20;;;18.40;87.20;;;;;;5018458;28;20041;-79
2023/10/04 08:40:30;;;;;;;2.00;0.20;;;18.30;87.30;;;;;;5042939;28;20526;-79
2023/10/04 08:42:58;;;;;;;0.93;0.30;;;18.40;87.90;;;;;;5041311;28;20033;-79
2023/10/04 08:45:29;;;;;;;2.50;0.20;;;18.40;88.10;;;;;;5043375;28;20045;-84
2023/10/04 08:47:57;;;;;;;1.97;0.73;;;18.40;88.70;;;;;;5037045;28;20149;-80
2023/10/04 08:50:55;;;;;;;1.60;0.20;;;18.40;87.80;;;;;;5044060;28;20044;-81
2023/10/04 08:53:40;;;;;;;2.42;0.20;;;18.50;87.50;;;;;;5038524;28;20049;-82
2023/10/04 08:56:16;;;;;;;2.65;0.35;;;18.50;87.20;;;;;;5024275;28;21000;-79
2023/10/04 08:58:44;;;;;;;2.00;0.60;;;18.70;87.60;;;;;;5026664;28;20076;-81
2023/10/04 09:01:15;;;;;;;1.60;0.30;;;18.60;86.50;;;;;;5015477;28;20148;-79
2023/10/04 09:03:44;;;;;;;1.25;0.17;;;18.80;86.60;;;;;;5027787;28;20037;-79
2023/10/04 09:06:16;;;;;;;2.45;0.20;;;18.80;85.40;;;;;;5023146;28;22491;-82
2023/10/04 09:08:45;;;;;;;2.75;0.30;;;18.80;85.60;;;;;;5027827;28;20053;-82
2023/10/04 09:11:16;;;;;;;3.10;0.40;;;18.70;85.70;;;;;;5027130;28;20048;-80
2023/10/04 09:13:47;;;;;;;3.92;0.30;;;18.70;86.00;;;;;;5042448;28;20057;-79
2023/10/04 09:16:28;;;;;;;2.38;0.30;;;18.80;86.20;;;;;;5041751;28;20063;-82
2023/10/04 09:19:23;;;;;;;2.10;0.75;;;18.70;85.90;;;;;;5039952;28;20048;-84
2023/10/04 09:21:53;;;;;;;2.83;0.30;;;18.60;86.50;;;;;;5023595;28;23238;-81
2023/10/04 09:24:20;;;;;;;2.80;0.35;;;18.60;87.00;;;;;;5020430;28;20583;-81
2023/10/04 09:26:52;;;;;;;1.92;0.30;;;18.70;87.00;;;;;;5025407;28;20037;-80
2023/10/04 09:29:35;;;;;;;2.35;0.38;;;18.80;86.60;;;;;;5040762;28;20060;-81
2023/10/04 09:32:04;;;;;;;1.83;0.35;;;18.90;86.80;;;;;;5018219;28;20628;-78
2023/10/04 09:34:33;;;;;;;2.80;0.30;;;19.00;86.90;;;;;;5018983;28;22286;-82
2023/10/04 09:37:00;;;;;;;2.00;0.20;;;19.20;86.30;;;;;;5041983;28;20060;-80
2023/10/04 09:39:31;;;;;;;1.30;0.20;;;19.10;84.60;;;;;;5028648;28;20064;-83
2023/10/04 09:42:04;;;;;;;1.83;0.50;;;19.20;86.70;;;;;;5020528;28;20052;-79
2023/10/04 09:44:35;;;;;;;6.95;0.55;;;19.30;85.50;;;;;;5008417;28;20120;-81
2023/10/04 09:47:05;;;;;;;0.98;0.30;;;19.40;85.50;;;;;;5016221;28;20044;-81
2023/10/04 09:49:35;;;;;;;1.20;0.20;;;19.40;84.90;;;;;;5030995;28;20110;-80
2023/10/04 09:52:07;;;;;;;2.35;0.30;;;19.40;84.30;;;;;;5020399;28;22558;-81
2023/10/04 09:54:35;;;;;;;2.83;0.40;;;19.60;85.20;;;;;;5019561;28;20068;-79
2023/10/04 09:57:11;;;;;;;3.38;0.30;;;19.60;84.10;;;;;;5019572;28;20140;-79
2023/10/04 09:59:43;;;;;;;2.38;0.30;;;19.60;83.80;;;;;;5016391;28;20049;-80
2023/10/04 10:02:12;;;;;;;1.70;0.30;;;19.70;83.90;;;;;;5055355;28;20808;-81
2023/10/04 10:04:44;;;;;;;1.20;0.30;;;19.60;83.90;;;;;;5033601;28;20500;-81
2023/10/04 10:07:21;;;;;;;6.47;0.93;;;19.70;83.70;;;;;;5012148;28;20049;-82
2023/10/04 10:10:20;;;;;;;1.73;0.22;;;20.00;83.70;;;;;;5036949;28;20060;-82
2023/10/04 10:12:50;;;;;;;2.38;0.40;;;20.00;81.70;;;;;;5032052;28;20056;-82
2023/10/04 10:15:21;;;;;;;2.75;0.30;;;20.00;81.90;;;;;;5024128;28;20041;-80
2023/10/04 10:17:49;;;;;;;6.07;0.40;;;20.00;81.20;;;;;;5039963;28;20059;-83
2023/10/04 10:20:16;;;;;;;3.17;0.50;;;20.20;81.10;;;;;;5040816;28;20042;-83
2023/10/04 10:22:58;;;;;;;2.40;0.35;;;20.30;79.80;;;;;;5040290;28;20059;-79
2023/10/04 10:25:26;;;;;;;;;;;20.40;79.80;;;;;;5042016;28;20135;-81
2023/10/04 10:27:57;;;;;;;3.08;0.40;;;20.50;78.20;;;;;;5043939;28;19956;-81
2023/10/04 10:30:25;;;;;;;2.00;0.20;;;20.50;77.10;;;;;;5030593;28;20388;-81
2023/10/04 10:32:56;;;;;;;2.80;0.30;;;20.60;77.10;;;;;;5026933;28;20098;-81
2023/10/04 10:35:59;;;;;;;1.05;0.30;;;20.70;76.30;;;;;;5032567;28;20056;-80
2023/10/04 10:38:41;;;;;;;2.08;0.30;;;20.70;75.10;;;;;;5035196;28;20095;-80
2023/10/04 10:41:31;;;;;;;;;;;20.60;73.60;;;;;;5044411;28;20044;-80
2023/10/04 10:44:30;;;;;;;1.35;0.40;;;20.70;72.20;;;;;;5040264;28;20379;-83
2023/10/04 10:47:01;;;;;;;2.90;0.40;;;20.70;73.10;;;;;;5041009;28;20134;-85
2023/10/04 10:49:53;;;;;;;7.32;0.25;;;20.50;72.20;;;;;;5018976;28;20144;-82
2023/10/04 10:52:43;;;;;;;1.05;0.20;;;20.30;72.10;;;;;;5038631;28;20111;-81
2023/10/04 10:55:17;;;;;;;2.13;0.32;;;20.10;72.80;;;;;;5020349;28;20060;-79
2023/10/04 10:57:48;;;;;;;1.05;0.30;;;20.10;73.50;;;;;;5024902;28;22521;-82
2023/10/04 11:02:48;;;;;;;2.13;0.32;;;20.30;74.50;;;;;;5024408;28;20048;-78
2023/10/04 11:05:20;;;;;;;3.00;0.40;;;20.50;74.10;;;;;;5011558;28;20041;-80
2023/10/04 11:07:50;;;;;;;2.25;0.30;;;20.70;73.70;;;;;;5026953;28;20044;-81
2023/10/04 11:10:17;;;;;;;4.05;0.30;;;20.60;73.20;;;;;;5024038;28;20037;-80
2023/10/04 11:12:46;;;;;;;2.53;0.40;;;20.60;73.00;;;;;;5012645;28;20061;-81
2023/10/04 11:15:17;;;;;;;3.50;0.50;;;20.50;71.30;;;;;;5025266;28;20118;-84
2023/10/04 11:17:46;;;;;;;1.27;0.25;;;20.30;71.30;;;;;;5012949;28;20049;-82
2023/10/04 11:20:17;;;;;;;0.80;0.20;;;20.20;72.50;;;;;;5023570;28;20049;-83
2023/10/04 11:22:45;;;;;;;2.00;0.60;;;20.20;73.30;;;;;;5024911;28;20820;-81
2023/10/04 11:25:13;;;;;;;2.75;0.57;;;20.00;73.80;;;;;;5029760;28;20037;-83
2023/10/04 11:27:50;;;;;;;1.50;0.30;;;20.00;74.00;;;;;;5042956;28;20056;-81
2023/10/04 11:30:21;;;;;;;2.38;0.82;;;20.10;74.10;;;;;;5042515;28;20049;-81
2023/10/04 11:32:50;;;;;;;1.33;0.20;;;20.10;74.50;;;;;;5025474;28;20055;-80
2023/10/04 11:35:21;;;;;;;1.63;0.30;;;20.00;74.80;;;;;;5022026;28;20504;-81
2023/10/04 11:37:50;;;;;;;1.35;0.25;;;19.90;75.30;;;;;;5048283;28;20505;-81
2023/10/04 11:40:23;;;;;;;1.65;0.25;;;20.10;74.90;;;;;;5022786;28;20055;-79
2023/10/04 11:43:00;;;;;;;5.00;0.63;;;20.30;74.60;;;;;;5029834;28;20045;-80
2023/10/04 11:45:28;;;;;;;1.50;0.30;;;20.30;72.40;;;;;;5020896;28;20063;-81
2023/10/04 11:48:02;;;;;;;4.30;0.20;;;20.40;72.70;;;;;;5046032;28;20044;-80
2023/10/04 11:50:45;;;;;;;1.40;0.30;;;20.50;72.50;;;;;;5028508;28;20049;-81
2023/10/04 11:53:29;;;;;;;2.25;0.30;;;20.50;72.40;;;;;;5027582;28;20045;-80
2023/10/04 11:55:57;;;;;;;1.03;0.30;;;20.50;73.00;;;;;;5033834;28;20063;-81
2023/10/04 11:58:24;;;;;;;3.83;0.52;;;20.50;72.30;;;;;;5021596;28;20045;-81
2023/10/04 12:01:05;;;;;;;2.83;0.63;;;20.50;72.30;;;;;;5038707;28;20137;-81
2023/10/04 12:03:36;;;;;;;4.45;0.47;;;20.60;72.70;;;;;;5045272;28;22425;-83
2023/10/04 12:06:04;;;;;;;1.65;0.30;;;20.60;72.30;;;;;;5046454;28;20045;-79
2023/10/04 12:08:31;;;;;;;3.60;0.47;;;20.50;70.70;;;;;;5028330;28;20076;-80
2023/10/04 12:11:01;;;;;;;1.85;0.30;;;20.50;71.20;;;;;;5027330;28;22539;-80
2023/10/04 12:13:32;;;;;;;2.83;0.77;;;20.50;71.10;;;;;;5050077;28;20061;-79
2023/10/04 12:16:00;;;;;;;2.70;0.30;;;20.40;71.10;;;;;;5023036;28;20140;-79
2023/10/04 12:18:30;;;;;;;4.07;0.45;;;20.50;71.80;;;;;;5033043;28;20151;-80
2023/10/04 12:20:57;;;;;;;4.75;0.45;;;20.60;72.40;;;;;;5034303;28;20041;-81
2023/10/04 12:23:24;;;;;;;3.65;0.47;;;20.50;71.80;;;;;;5043407;28;22075;-82
2023/10/04 12:25:52;;;;;;;3.03;0.50;;;20.40;72.20;;;;;;5000444;28;20053;-82
2023/10/04 12:28:19;;;;;;;2.40;0.30;;;20.40;71.30;;;;;;5037239;28;20126;-81
2023/10/04 12:30:48;;;;;;;7.25;0.40;;;20.50;71.70;;;;;;5043683;28;20064;-79
2023/10/04 12:33:17;;;;;;;2.03;0.25;;;20.70;70.70;;;;;;5039252;28;20045;-80
2023/10/04 12:35:44;;;;;;;2.60;0.47;;;20.70;70.40;;;;;;5032899;28;20795;-81
2023/10/04 12:38:11;;;;;;;1.10;0.30;;;20.70;70.40;;;;;;5023330;28;20542;-80
2023/10/04 12:40:39;;;;;;;0.90;0.20;;;20.70;70.60;;;;;;5025764;28;20524;-79
2023/10/04 12:43:07;;;;;;;3.83;0.30;;;20.60;69.60;;;;;;5024798;28;20045;-83
2023/10/04 12:45:34;;;;;;;1.88;0.40;;;20.60;70.80;;;;;;5020983;28;20048;-80
2023/10/04 12:48:01;;;;;;;3.88;0.25;;;20.60;69.70;;;;;;5036085;28;20049;-78
2023/10/04 12:50:29;;;;;;;2.10;0.43;;;20.40;69.40;;;;;;5036962;28;20110;-81
2023/10/04 12:52:57;;;;;;;1.70;0.30;;;20.40;70.10;;;;;;5016210;28;20492;-80
2023/10/04 12:55:25;;;;;;;3.15;0.40;;;20.20;69.10;;;;;;5035068;28;20866;-80
2023/10/04 12:57:53;;;;;;;2.13;0.45;;;20.20;69.00;;;;;;5023378;28;20080;-79
2023/10/04 13:00:25;;;;;;;3.80;0.65;;;20.30;69.40;;;;;;5037354;28;20061;-80
2023/10/04 13:02:57;;;;;;;3.72;0.30;;;20.40;68.30;;;;;;5038646;28;20054;-77
2023/10/04 13:05:27;;;;;;;2.78;0.40;;;20.60;68.80;;;;;;5035646;28;20037;-80